»·PEaware :: WAT380 KSJC-KPSP

WAT380 :: KSJC-KPSP

FLIGHT INFORMATION

Flight Status: Arrived
Operator:
Walker Air Transport
More flights by this operator :: More flights under this callsign
Pilot: Spencer M. (27733)
Aircraft: BOEING 737-800
(B738)
More flights by this aircraft type
Origin: KSJC Mineta San Jose Intl
United States
Destination: KPSP Palm Springs Intl
United States
More flights between these airports :: More routes between these airports
Route: TECKY3 EBAYE CLASN SIZLR3
File this flight plan on PilotEdge
Remarks:
Altitude:
(Current/Filed)
31,000ft
Speed:
(Current/Filed)
450kts
Departed: 21-Feb-21 09:05 AM
Arrived: 21-Feb-21 10:09 AM
Distance/Time
Traveled:
339nm/1:03
Distance/Time
To Go:
Arrived

Flight Plot

Page will automatically refresh every two minutes.

Flight plan parsing failed; only flown route is shown


Map Options




Map Legend


Flown Route
Filed Route
Departure Airport
Arrival Airport
Navaid (VOR, NDB)
Fix

Horizontal Profiles

Position Reports

Time Latitude Longitude Heading Altitude Ground
Speed
21-Feb-21 08:35 37.365310 -121.925665 49 48ft 0kts
21-Feb-21 08:36 37.365310 -121.925665 49 48ft 0kts
21-Feb-21 08:37 37.365310 -121.925665 49 48ft 0kts
21-Feb-21 08:38 37.365310 -121.925665 49 48ft 0kts
21-Feb-21 08:39 37.365310 -121.925665 49 48ft 0kts
21-Feb-21 08:40 37.365310 -121.925665 49 48ft 0kts
21-Feb-21 08:41 37.365310 -121.925665 49 48ft 0kts
21-Feb-21 08:42 37.365310 -121.925665 49 48ft 0kts
21-Feb-21 08:43 37.365310 -121.925665 49 48ft 0kts
21-Feb-21 08:44 37.365310 -121.925665 49 48ft 0kts
21-Feb-21 08:45 37.365310 -121.925665 49 48ft 0kts
21-Feb-21 08:46 37.365310 -121.925665 49 48ft 0kts
21-Feb-21 08:47 37.365310 -121.925665 49 48ft 0kts
21-Feb-21 08:48 37.365310 -121.925665 49 48ft 0kts
21-Feb-21 08:49 37.365310 -121.925665 49 48ft 0kts
21-Feb-21 08:50 37.365310 -121.925665 49 48ft 0kts
21-Feb-21 08:51 37.365310 -121.925665 49 48ft 0kts
21-Feb-21 08:52 37.365254 -121.925752 61 48ft 2kts
21-Feb-21 08:53 37.365374 -121.926420 143 48ft 2kts
21-Feb-21 08:54 37.365420 -121.926464 141 48ft 0kts
21-Feb-21 08:55 37.365420 -121.926464 141 48ft 0kts
21-Feb-21 08:56 37.364666 -121.925889 149 49ft 9kts
21-Feb-21 08:57 37.361892 -121.923150 137 55ft 14kts
21-Feb-21 08:58 37.358609 -121.919557 140 58ft 15kts
21-Feb-21 08:59 37.354765 -121.915366 138 63ft 18kts
21-Feb-21 09:00 37.353044 -121.914541 221 66ft 0kts
21-Feb-21 09:01 37.353044 -121.914541 221 66ft 0kts
21-Feb-21 09:02 37.353044 -121.914541 221 66ft 0kts
21-Feb-21 09:03 37.352637 -121.915079 236 66ft 9kts
21-Feb-21 09:04 37.366210 -121.930451 318 103ft 180kts
21-Feb-21 09:05 37.407248 -121.974707 334 2826ft 222kts
21-Feb-21 09:06 37.444548 -121.925120 106 4984ft 272kts
21-Feb-21 09:07 37.388158 -121.862682 132 4996ft 275kts
21-Feb-21 09:08 37.334279 -121.794750 132 6737ft 282kts
21-Feb-21 09:09 37.275969 -121.727648 135 9871ft 295kts
21-Feb-21 09:10 37.208070 -121.650658 135 11835ft 356kts
21-Feb-21 09:11 37.140219 -121.573964 135 14423ft 373kts
21-Feb-21 09:12 37.061553 -121.485239 135 17072ft 390kts
21-Feb-21 09:13 36.977735 -121.395915 136 19490ft 405kts
21-Feb-21 09:14 36.890732 -121.303166 137 21729ft 418kts
21-Feb-21 09:15 36.800994 -121.207722 136 23668ft 432kts
21-Feb-21 09:16 36.708760 -121.109896 135 25478ft 443kts
21-Feb-21 09:17 36.614161 -121.009927 135 27118ft 453kts
21-Feb-21 09:18 36.515533 -120.909529 135 28586ft 464kts
21-Feb-21 09:19 36.414437 -120.807180 135 29902ft 475kts
21-Feb-21 09:20 36.311453 -120.703008 134 31290ft 480kts
21-Feb-21 09:21 36.207649 -120.598387 134 31486ft 480kts
21-Feb-21 09:22 36.104394 -120.494592 134 31485ft 481kts
21-Feb-21 09:23 36.000632 -120.390601 134 31485ft 482kts
21-Feb-21 09:24 35.900091 -120.282993 124 31470ft 472kts
21-Feb-21 09:25 35.838085 -120.146122 102 31471ft 452kts
21-Feb-21 09:26 35.798021 -119.999828 101 31491ft 452kts
21-Feb-21 09:27 35.757779 -119.852862 101 31494ft 452kts
21-Feb-21 09:28 35.717571 -119.706786 101 31494ft 452kts
21-Feb-21 09:29 35.677053 -119.560715 103 31492ft 454kts
21-Feb-21 09:30 35.603055 -119.430633 124 31494ft 472kts
21-Feb-21 09:31 35.516446 -119.309519 126 31494ft 473kts
21-Feb-21 09:32 35.428107 -119.189326 126 31466ft 474kts
21-Feb-21 09:33 35.339509 -119.070068 126 31438ft 474kts
21-Feb-21 09:34 35.250186 -118.951501 127 31444ft 475kts
21-Feb-21 09:35 35.160648 -118.833232 127 31453ft 474kts
21-Feb-21 09:36 35.071480 -118.715595 127 31458ft 474kts
21-Feb-21 09:37 34.982411 -118.598457 127 31457ft 462kts
21-Feb-21 09:38 34.894666 -118.483354 127 31456ft 466kts
21-Feb-21 09:39 34.807582 -118.369515 127 30306ft 454kts
21-Feb-21 09:40 34.728701 -118.253872 123 27973ft 437kts
21-Feb-21 09:41 34.654860 -118.140014 124 25718ft 424kts
21-Feb-21 09:42 34.585301 -118.028128 119 23560ft 409kts
21-Feb-21 09:43 34.531854 -117.907056 113 23431ft 412kts
21-Feb-21 09:44 34.480881 -117.783005 113 23448ft 411kts
21-Feb-21 09:45 34.429990 -117.659119 113 23448ft 411kts
21-Feb-21 09:46 34.380213 -117.537482 113 21941ft 400kts
21-Feb-21 09:47 34.331300 -117.418080 113 19745ft 394kts
21-Feb-21 09:48 34.281843 -117.301601 118 17569ft 388kts
21-Feb-21 09:49 34.229122 -117.190292 117 15987ft 368kts
21-Feb-21 09:50 34.178104 -117.081735 117 15968ft 372kts
21-Feb-21 09:51 34.126814 -116.972693 117 15970ft 374kts
21-Feb-21 09:52 34.075755 -116.863829 116 15301ft 370kts
21-Feb-21 09:53 34.029696 -116.757601 105 13986ft 350kts
21-Feb-21 09:54 33.999627 -116.646162 103 12657ft 347kts
21-Feb-21 09:55 33.962637 -116.540424 124 10975ft 337kts
21-Feb-21 09:56 33.902296 -116.466320 132 10983ft 295kts
21-Feb-21 09:57 33.853049 -116.389367 111 10977ft 286kts
21-Feb-21 09:58 33.816030 -116.301524 113 8338ft 301kts
21-Feb-21 09:59 33.770819 -116.223123 162 6471ft 272kts
21-Feb-21 10:00 33.704820 -116.242453 212 5925ft 240kts
21-Feb-21 10:01 33.668443 -116.301981 260 5003ft 205kts
21-Feb-21 10:02 33.676214 -116.361169 309 4040ft 175kts
21-Feb-21 10:03 33.710068 -116.397430 322 3136ft 161kts
21-Feb-21 10:04 33.744291 -116.429162 322 2269ft 142kts
21-Feb-21 10:05 33.775108 -116.457713 322 1530ft 141kts
21-Feb-21 10:06 33.805332 -116.486550 323 852ft 136kts
21-Feb-21 10:07 33.833027 -116.510546 321 446ft 60kts
21-Feb-21 10:09 33.836114 -116.514916 197 464ft 0kts
21-Feb-21 10:10 33.835134 -116.514687 145 461ft 13kts
21-Feb-21 10:11 33.831249 -116.511209 143 444ft 18kts
21-Feb-21 10:12 33.827018 -116.507346 145 432ft 19kts
21-Feb-21 10:13 33.823731 -116.506936 169 425ft 0kts
21-Feb-21 10:14 33.823731 -116.506936 169 425ft 0kts
21-Feb-21 10:15 33.823731 -116.506936 169 425ft 0kts
21-Feb-21 10:16 33.823731 -116.506936 169 425ft 0kts

Navigation Log

Ident Type
Flight plan parsing failed, navigation log unavailable